createdAt,value
2024-04-07T00:00:22.724Z,26.61
2024-04-07T00:01:22.793Z,26.63
2024-04-07T00:01:52.908Z,26.63
2024-04-07T00:02:23.037Z,26.63
2024-04-07T00:02:53.143Z,26.61
2024-04-07T00:03:23.246Z,26.61
2024-04-07T00:03:53.372Z,26.61
2024-04-07T00:04:23.497Z,26.61
2024-04-07T00:04:53.839Z,26.61
2024-04-07T00:05:23.597Z,26.63
2024-04-07T00:06:23.650Z,26.58
2024-04-07T00:06:53.768Z,26.60
2024-04-07T00:07:23.882Z,26.60
2024-04-07T00:07:53.988Z,26.61
2024-04-07T00:08:24.106Z,26.60
2024-04-07T00:08:54.096Z,26.61
2024-04-07T00:09:24.229Z,26.60
2024-04-07T00:09:54.234Z,26.61
2024-04-07T00:10:24.346Z,26.63
2024-04-07T00:10:54.516Z,26.60
2024-04-07T00:11:24.518Z,26.61
2024-04-07T00:11:54.628Z,26.60
2024-04-07T00:12:24.739Z,26.60
2024-04-07T00:12:54.851Z,26.60
2024-04-07T00:13:24.963Z,26.60
2024-04-07T00:13:55.084Z,26.60
2024-04-07T00:14:25.088Z,26.58
2024-04-07T00:14:55.088Z,26.58
2024-04-07T00:15:25.212Z,26.60
2024-04-07T00:15:55.317Z,26.58
2024-04-07T00:16:25.312Z,26.60
2024-04-07T00:16:55.429Z,26.57
2024-04-07T00:17:25.546Z,26.60
2024-04-07T00:17:55.679Z,26.58
2024-04-07T00:18:25.668Z,26.61
2024-04-07T00:18:55.677Z,26.58
2024-04-07T00:19:25.670Z,26.61
2024-04-07T00:19:55.783Z,26.58
2024-04-07T00:20:25.908Z,26.60
2024-04-07T00:20:56.040Z,26.58
2024-04-07T00:21:26.138Z,26.57
2024-04-07T00:21:56.123Z,26.60
2024-04-07T00:22:26.234Z,26.58
2024-04-07T00:22:56.372Z,26.58
2024-04-07T00:23:26.382Z,26.57
2024-04-07T00:23:56.373Z,26.60
2024-04-07T00:24:26.484Z,26.58
2024-04-07T00:24:56.604Z,26.58
2024-04-07T00:25:26.729Z,26.58
2024-04-07T00:25:56.721Z,26.58
2024-04-07T00:26:26.858Z,26.61
2024-04-07T00:26:56.949Z,26.57
2024-04-07T00:27:27.062Z,26.58
2024-04-07T00:27:57.074Z,26.60
2024-04-07T00:28:57.135Z,26.58
2024-04-07T00:29:27.261Z,26.57
2024-04-07T00:29:57.250Z,26.58
2024-04-07T00:30:27.364Z,26.60
2024-04-07T00:30:57.360Z,26.58
2024-04-07T00:31:27.487Z,26.58
2024-04-07T00:31:57.593Z,26.57
2024-04-07T00:32:27.742Z,26.58
2024-04-07T00:32:57.730Z,26.60
2024-04-07T00:33:57.815Z,26.60
2024-04-07T00:34:27.924Z,26.58
2024-04-07T00:34:58.042Z,26.57
2024-04-07T00:35:28.042Z,26.57
2024-04-07T00:35:58.169Z,26.60
2024-04-07T00:36:28.265Z,26.58
2024-04-07T00:36:58.275Z,26.58
2024-04-07T00:37:28.286Z,26.58
2024-04-07T00:37:58.285Z,26.60
2024-04-07T00:38:28.397Z,26.58
2024-04-07T00:38:58.388Z,26.57
2024-04-07T00:39:28.500Z,26.60
2024-04-07T00:39:58.501Z,26.58
2024-04-07T00:40:28.625Z,26.57
2024-04-07T00:40:58.855Z,26.57
2024-04-07T00:41:28.819Z,26.57
2024-04-07T00:41:58.967Z,26.58
2024-04-07T00:42:28.963Z,26.58
2024-04-07T00:42:59.047Z,26.57
2024-04-07T00:43:29.153Z,26.58
2024-04-07T00:43:59.213Z,26.57
2024-04-07T00:44:29.301Z,26.57
2024-04-07T00:44:59.381Z,26.57
2024-04-07T00:45:29.462Z,26.57
2024-04-07T00:45:59.526Z,26.58
2024-04-07T00:46:29.612Z,26.58
2024-04-07T00:46:59.687Z,26.55
2024-04-07T00:47:29.767Z,26.58
2024-04-07T00:47:59.843Z,26.57
2024-04-07T00:48:30.003Z,26.55
2024-04-07T00:48:59.934Z,26.57
2024-04-07T00:49:30.016Z,26.57
2024-04-07T00:50:00.123Z,26.58
2024-04-07T00:50:30.194Z,26.57
2024-04-07T00:51:00.299Z,26.58
2024-04-07T00:51:30.361Z,26.55
2024-04-07T00:52:00.449Z,26.57
2024-04-07T00:52:30.514Z,26.57
2024-04-07T00:53:00.620Z,26.55
2024-04-07T00:53:30.727Z,26.58
2024-04-07T00:54:00.733Z,26.55
2024-04-07T00:54:30.836Z,26.57
2024-04-07T00:55:00.958Z,26.55
2024-04-07T00:55:31.073Z,26.55
2024-04-07T00:56:01.069Z,26.57
2024-04-07T00:56:31.193Z,26.55
2024-04-07T00:57:01.191Z,26.55
2024-04-07T00:57:31.311Z,26.58
2024-04-07T00:58:01.417Z,26.57
2024-04-07T00:58:31.538Z,26.60
2024-04-07T00:59:01.652Z,26.55
2024-04-07T00:59:31.767Z,26.58
2024-04-07T01:00:01.884Z,26.58
2024-04-07T01:00:32.022Z,26.57
2024-04-07T01:01:02.009Z,26.57
2024-04-07T01:01:32.128Z,26.60
2024-04-07T01:02:02.123Z,26.57
2024-04-07T01:03:02.211Z,26.58
2024-04-07T01:03:32.330Z,26.57
2024-04-07T01:04:02.444Z,26.57
2024-04-07T01:04:32.570Z,26.57
2024-04-07T01:05:02.708Z,26.58
2024-04-07T01:05:32.723Z,26.60
2024-04-07T01:06:02.728Z,26.57
2024-04-07T01:06:32.828Z,26.55
2024-04-07T01:07:02.944Z,26.57
2024-04-07T01:07:33.060Z,26.55
2024-04-07T01:08:03.177Z,26.58
2024-04-07T01:08:33.299Z,26.58
2024-04-07T01:09:03.418Z,26.55
2024-04-07T01:09:33.529Z,26.58
2024-04-07T01:10:03.532Z,26.55
2024-04-07T01:11:03.598Z,26.57
2024-04-07T01:11:33.717Z,26.57
2024-04-07T01:12:03.712Z,26.55
2024-04-07T01:12:33.828Z,26.60
2024-04-07T01:13:03.827Z,26.58
2024-04-07T01:13:33.942Z,26.57
2024-04-07T01:14:04.068Z,26.55
2024-04-07T01:14:34.072Z,26.57
2024-04-07T01:15:34.139Z,26.57
2024-04-07T01:16:04.254Z,26.58
2024-04-07T01:16:34.364Z,26.55
2024-04-07T01:17:04.479Z,26.57
2024-04-07T01:17:34.604Z,26.57
2024-04-07T01:18:04.597Z,26.55
2024-04-07T01:18:34.722Z,26.58
2024-04-07T01:19:04.721Z,26.55
2024-04-07T01:20:04.804Z,26.55
2024-04-07T01:20:34.920Z,26.55
2024-04-07T01:21:04.941Z,26.57
2024-04-07T01:22:05.014Z,26.57
2024-04-07T01:22:35.123Z,26.57
2024-04-07T01:23:05.118Z,26.58
2024-04-07T01:23:35.244Z,26.58
2024-04-07T01:24:05.231Z,26.58
2024-04-07T01:24:35.349Z,26.55
2024-04-07T01:25:05.461Z,26.58
2024-04-07T01:25:35.579Z,26.55
2024-04-07T01:26:05.700Z,26.57
2024-04-07T01:26:35.809Z,26.57
2024-04-07T01:27:05.922Z,26.58
2024-04-07T01:27:36.041Z,26.57
2024-04-07T01:28:06.164Z,26.57
2024-04-07T01:28:36.180Z,26.55
2024-04-07T01:29:06.281Z,26.54
2024-04-07T01:29:36.401Z,26.57
2024-04-07T01:30:06.394Z,26.55
2024-04-07T01:30:36.531Z,26.57
2024-04-07T01:31:06.508Z,26.57
2024-04-07T01:31:36.625Z,26.57
2024-04-07T01:32:06.739Z,26.55
2024-04-07T01:32:36.860Z,26.55
2024-04-07T01:33:06.865Z,26.55
2024-04-07T01:34:06.935Z,26.55
2024-04-07T01:34:37.053Z,26.55
2024-04-07T01:35:07.172Z,26.55
2024-04-07T01:35:37.234Z,26.57
2024-04-07T01:36:07.358Z,26.55
2024-04-07T01:36:37.464Z,26.57
2024-04-07T01:37:07.471Z,26.58
2024-04-07T01:37:37.469Z,26.55
2024-04-07T01:38:37.542Z,26.57
2024-04-07T01:39:07.652Z,26.57
2024-04-07T01:39:37.766Z,26.55
2024-04-07T01:40:07.884Z,26.55
2024-04-07T01:40:38.005Z,26.55
2024-04-07T01:41:08.112Z,26.54
2024-04-07T01:41:38.204Z,26.55
2024-04-07T01:42:08.622Z,26.55
2024-04-07T01:42:38.353Z,26.55
2024-04-07T01:43:38.487Z,26.57
2024-04-07T01:44:08.596Z,26.55
2024-04-07T01:44:38.591Z,26.58
2024-04-07T01:45:08.677Z,26.57
2024-04-07T01:45:38.746Z,26.57
2024-04-07T01:46:08.813Z,26.57
2024-04-07T01:46:38.929Z,26.54
2024-04-07T01:47:09.019Z,26.55
2024-04-07T01:47:39.083Z,26.55
2024-04-07T01:48:09.172Z,26.55
2024-04-07T01:48:39.305Z,26.53
2024-04-07T01:49:09.347Z,26.57
2024-04-07T01:49:39.435Z,26.57
2024-04-07T01:50:09.510Z,26.55
2024-04-07T01:50:39.587Z,26.55
2024-04-07T01:51:09.672Z,26.57
2024-04-07T01:51:39.785Z,26.54
2024-04-07T01:52:09.855Z,26.58
2024-04-07T01:52:39.994Z,26.55
2024-04-07T01:53:09.960Z,26.57
2024-04-07T01:53:40.075Z,26.54
2024-04-07T01:54:10.193Z,26.54
2024-04-07T01:54:40.315Z,26.54
2024-04-07T01:55:10.425Z,26.54
2024-04-07T01:55:40.563Z,26.57
2024-04-07T01:56:10.552Z,26.55
2024-04-07T01:57:10.614Z,26.57
2024-04-07T01:57:40.728Z,26.54
2024-04-07T01:58:10.840Z,26.57
2024-04-07T01:58:40.967Z,26.57
2024-04-07T01:59:11.068Z,26.55
2024-04-07T01:59:41.185Z,26.55
2024-04-07T02:00:11.324Z,26.58
2024-04-07T02:00:41.339Z,26.54
2024-04-07T02:01:41.486Z,26.55
2024-04-07T02:02:11.466Z,26.57
2024-04-07T02:02:41.588Z,26.57
2024-04-07T02:03:11.700Z,26.55
2024-04-07T02:03:41.811Z,26.58
2024-04-07T02:04:11.825Z,26.55
2024-04-07T02:04:41.948Z,26.55
2024-04-07T02:05:11.965Z,26.55
2024-04-07T02:05:41.960Z,26.57
2024-04-07T02:06:42.044Z,26.55
2024-04-07T02:07:12.171Z,26.55
2024-04-07T02:07:42.290Z,26.57
2024-04-07T02:08:12.280Z,26.57
2024-04-07T02:08:42.393Z,26.57
2024-04-07T02:09:12.513Z,26.55
2024-04-07T02:09:42.530Z,26.57
2024-04-07T02:10:12.652Z,26.58
2024-04-07T02:10:42.801Z,26.57
2024-04-07T02:11:12.788Z,26.55
2024-04-07T02:11:42.784Z,26.54
2024-04-07T02:12:12.934Z,26.58
2024-04-07T02:12:42.899Z,26.57
2024-04-07T02:13:13.013Z,26.55
2024-04-07T02:13:43.157Z,26.58
2024-04-07T02:14:13.137Z,26.57
2024-04-07T02:14:43.135Z,26.57
2024-04-07T02:15:43.221Z,26.60
2024-04-07T02:16:13.213Z,26.60
2024-04-07T02:16:43.351Z,26.57
2024-04-07T02:17:13.443Z,26.57
2024-04-07T02:17:43.430Z,26.57
2024-04-07T02:18:13.557Z,26.57
2024-04-07T02:18:43.665Z,26.57
2024-04-07T02:19:13.782Z,26.57
2024-04-07T02:19:43.798Z,26.58
2024-04-07T02:20:13.797Z,26.55
2024-04-07T02:20:43.908Z,26.57
2024-04-07T02:21:14.027Z,26.58
2024-04-07T02:21:44.023Z,26.57
2024-04-07T02:22:14.150Z,26.58
2024-04-07T02:22:44.139Z,26.57
2024-04-07T02:23:14.257Z,26.60
2024-04-07T02:23:44.263Z,26.61
2024-04-07T02:24:14.268Z,26.55
2024-04-07T02:25:14.354Z,26.57
2024-04-07T02:25:44.370Z,26.58
2024-04-07T02:26:14.355Z,26.58
2024-04-07T02:26:44.471Z,26.61
2024-04-07T02:27:14.597Z,26.58
2024-04-07T02:27:44.702Z,26.60
2024-04-07T02:28:14.829Z,26.55
2024-04-07T02:28:44.842Z,26.55
2024-04-07T02:29:14.868Z,26.58
2024-04-07T02:30:14.920Z,26.57
2024-04-07T02:30:45.046Z,26.57
2024-04-07T02:31:15.032Z,26.58
2024-04-07T02:31:45.201Z,26.57
2024-04-07T02:32:15.197Z,26.55
2024-04-07T02:32:45.315Z,26.55
2024-04-07T02:33:15.315Z,26.57
2024-04-07T02:33:45.427Z,26.54
2024-04-07T02:34:15.542Z,26.55
2024-04-07T02:34:45.608Z,26.55
2024-04-07T02:35:15.578Z,26.55
2024-04-07T02:35:45.692Z,26.55
2024-04-07T02:36:15.806Z,26.57
2024-04-07T02:36:45.802Z,26.57
2024-04-07T02:37:45.924Z,26.53
2024-04-07T02:38:15.904Z,26.54
2024-04-07T02:38:46.016Z,26.54
2024-04-07T02:39:16.129Z,26.54
2024-04-07T02:39:46.249Z,26.55
2024-04-07T02:40:16.359Z,26.55
2024-04-07T02:40:46.503Z,26.57
2024-04-07T02:41:16.520Z,26.55
2024-04-07T02:41:46.508Z,26.54
2024-04-07T02:42:16.644Z,26.54
2024-04-07T02:42:46.638Z,26.55
2024-04-07T02:43:16.712Z,26.53
2024-04-07T02:43:46.826Z,26.53
2024-04-07T02:44:16.889Z,26.53
2024-04-07T02:44:46.971Z,26.55
2024-04-07T02:45:17.052Z,26.55
2024-04-07T02:45:47.129Z,26.54
2024-04-07T02:46:17.205Z,26.51
2024-04-07T02:46:47.281Z,26.57
2024-04-07T02:47:17.360Z,26.54
2024-04-07T02:47:47.436Z,26.51
2024-04-07T02:48:17.518Z,26.53
2024-04-07T02:48:47.594Z,26.54
2024-04-07T02:49:17.671Z,26.53
2024-04-07T02:49:47.794Z,26.51
2024-04-07T02:50:17.761Z,26.54
2024-04-07T02:50:47.843Z,26.53
2024-04-07T02:51:17.921Z,26.54
2024-04-07T02:51:48.003Z,26.55
2024-04-07T02:52:18.088Z,26.51
2024-04-07T02:52:48.169Z,26.51
2024-04-07T02:53:18.294Z,26.53
2024-04-07T02:53:48.388Z,26.53
2024-04-07T02:54:18.510Z,26.51
2024-04-07T02:54:48.631Z,26.51
2024-04-07T02:55:18.740Z,26.50
2024-04-07T02:55:48.875Z,26.53
2024-04-07T02:56:18.888Z,26.53
2024-04-07T02:56:49.005Z,26.53
2024-04-07T02:57:18.996Z,26.53
2024-04-07T02:57:49.116Z,26.50
2024-04-07T02:58:19.229Z,26.53
2024-04-07T02:58:49.274Z,26.51
2024-04-07T02:59:19.269Z,26.53
2024-04-07T02:59:49.386Z,26.54
2024-04-07T03:00:19.501Z,26.54
2024-04-07T03:00:49.632Z,26.53
2024-04-07T03:01:19.628Z,26.54
2024-04-07T03:02:19.697Z,26.54
2024-04-07T03:02:49.698Z,26.51
2024-04-07T03:03:19.814Z,26.53
2024-04-07T03:03:49.806Z,26.55
2024-04-07T03:04:19.921Z,26.51
2024-04-07T03:04:49.969Z,26.54
2024-04-07T03:05:20.020Z,26.54
2024-04-07T03:05:50.020Z,26.51
2024-04-07T03:06:20.013Z,26.51
2024-04-07T03:06:50.144Z,26.51
2024-04-07T03:07:20.275Z,26.53
2024-04-07T03:07:50.283Z,26.51
2024-04-07T03:08:20.286Z,26.53
2024-04-07T03:08:50.300Z,26.53
2024-04-07T03:09:20.400Z,26.53
2024-04-07T03:09:50.514Z,26.54
2024-04-07T03:10:20.630Z,26.53
2024-04-07T03:10:50.696Z,26.50
2024-04-07T03:11:20.717Z,26.54
2024-04-07T03:11:50.714Z,26.54
2024-04-07T03:12:20.832Z,26.53
2024-04-07T03:12:50.948Z,26.54
2024-04-07T03:13:21.071Z,26.53
2024-04-07T03:13:51.205Z,26.53
2024-04-07T03:14:21.207Z,26.50
2024-04-07T03:14:51.208Z,26.54
2024-04-07T03:15:21.323Z,26.51
2024-04-07T03:15:51.313Z,26.51
2024-04-07T03:16:21.442Z,26.51
2024-04-07T03:16:51.599Z,26.51
2024-04-07T03:17:21.637Z,26.53
2024-04-07T03:17:51.737Z,26.51
2024-04-07T03:18:21.847Z,26.51
2024-04-07T03:18:51.850Z,26.51
2024-04-07T03:19:21.853Z,26.53
2024-04-07T03:19:51.897Z,26.51
2024-04-07T03:20:21.878Z,26.50
2024-04-07T03:20:51.989Z,26.51
2024-04-07T03:21:22.110Z,26.53
2024-04-07T03:21:52.232Z,26.50
2024-04-07T03:22:22.343Z,26.51
2024-04-07T03:22:52.370Z,26.50
2024-04-07T03:23:52.411Z,26.51
2024-04-07T03:24:22.549Z,26.51
2024-04-07T03:24:52.537Z,26.48
2024-04-07T03:25:52.620Z,26.51
2024-04-07T03:26:22.622Z,26.50
2024-04-07T03:26:52.737Z,26.53
2024-04-07T03:27:22.847Z,26.50
2024-04-07T03:27:52.958Z,26.50
2024-04-07T03:28:23.078Z,26.53
2024-04-07T03:28:53.495Z,26.53
2024-04-07T03:29:23.208Z,26.51
2024-04-07T03:30:23.304Z,26.50
2024-04-07T03:30:53.419Z,26.50
2024-04-07T03:31:23.531Z,26.50
2024-04-07T03:31:53.693Z,26.50
2024-04-07T03:32:23.663Z,26.50
2024-04-07T03:32:53.768Z,26.50
2024-04-07T03:33:23.891Z,26.50
2024-04-07T03:33:53.893Z,26.48
2024-04-07T03:34:53.992Z,26.50
2024-04-07T03:35:24.097Z,26.48
2024-04-07T03:35:54.203Z,26.50
2024-04-07T03:36:24.321Z,26.47
2024-04-07T03:36:54.438Z,26.50
2024-04-07T03:37:24.554Z,26.50
2024-04-07T03:37:54.564Z,26.47
2024-04-07T03:38:24.558Z,26.48
2024-04-07T03:39:24.629Z,26.50
2024-04-07T03:39:54.643Z,26.48
2024-04-07T03:40:24.753Z,26.51
2024-04-07T03:40:54.865Z,26.51
2024-04-07T03:41:24.983Z,26.47
2024-04-07T03:41:54.981Z,26.48
2024-04-07T03:42:25.101Z,26.48
2024-04-07T03:42:55.216Z,26.51
2024-04-07T03:43:25.293Z,26.48
2024-04-07T03:43:55.392Z,26.48
2024-04-07T03:44:25.455Z,26.48
2024-04-07T03:44:55.517Z,26.47
2024-04-07T03:45:25.596Z,26.50
2024-04-07T03:45:55.669Z,26.50
2024-04-07T03:46:25.741Z,26.48
2024-04-07T03:46:55.823Z,26.51
2024-04-07T03:47:25.903Z,26.51
2024-04-07T03:47:55.978Z,26.50
2024-04-07T03:48:26.068Z,26.48
2024-04-07T03:48:56.142Z,26.48
2024-04-07T03:49:26.214Z,26.51
2024-04-07T03:49:56.292Z,26.50
2024-04-07T03:50:26.393Z,26.48
2024-04-07T03:50:56.451Z,26.50
2024-04-07T03:51:26.535Z,26.50
2024-04-07T03:51:56.622Z,26.50
2024-04-07T03:52:26.709Z,26.50
2024-04-07T03:52:56.795Z,26.50
2024-04-07T03:53:26.908Z,26.50
2024-04-07T03:53:57.024Z,26.50
2024-04-07T03:54:27.150Z,26.47
2024-04-07T03:54:57.251Z,26.48
2024-04-07T03:55:27.383Z,26.51
2024-04-07T03:55:57.484Z,26.48
2024-04-07T03:56:27.611Z,26.51
2024-04-07T03:56:57.729Z,26.48
2024-04-07T03:57:27.716Z,26.50
2024-04-07T03:57:57.842Z,26.48
2024-04-07T03:58:27.957Z,26.48
2024-04-07T03:58:58.058Z,26.50
2024-04-07T03:59:28.177Z,26.48
2024-04-07T03:59:58.286Z,26.48
2024-04-07T04:00:28.396Z,26.50
2024-04-07T04:00:58.516Z,26.53
2024-04-07T04:01:28.698Z,26.51
2024-04-07T04:01:58.709Z,26.50
2024-04-07T04:02:58.778Z,26.48
2024-04-07T04:03:28.770Z,26.50
2024-04-07T04:03:58.892Z,26.47
2024-04-07T04:04:29.009Z,26.47
2024-04-07T04:04:59.122Z,26.46
2024-04-07T04:05:29.231Z,26.48
2024-04-07T04:05:59.363Z,26.50
2024-04-07T04:06:29.373Z,26.48
2024-04-07T04:07:29.444Z,26.47
2024-04-07T04:07:59.565Z,26.48
2024-04-07T04:08:29.678Z,26.46
2024-04-07T04:08:59.672Z,26.48
2024-04-07T04:09:29.784Z,26.48
2024-04-07T04:09:59.896Z,26.47
2024-04-07T04:10:30.033Z,26.50
2024-04-07T04:11:00.026Z,26.47
2024-04-07T04:12:00.087Z,26.47
2024-04-07T04:12:30.093Z,26.47
2024-04-07T04:13:00.212Z,26.46
2024-04-07T04:13:30.318Z,26.47
2024-04-07T04:14:00.440Z,26.44
2024-04-07T04:14:30.548Z,26.47
2024-04-07T04:15:00.664Z,26.47
2024-04-07T04:15:30.781Z,26.44
2024-04-07T04:16:00.780Z,26.47
2024-04-07T04:17:00.864Z,26.46
2024-04-07T04:17:31.037Z,26.46
2024-04-07T04:18:01.041Z,26.46
2024-04-07T04:18:31.031Z,26.47
2024-04-07T04:19:01.147Z,26.46
2024-04-07T04:19:31.253Z,26.47
2024-04-07T04:20:01.388Z,26.46
2024-04-07T04:20:31.374Z,26.46
2024-04-07T04:21:31.437Z,26.47
2024-04-07T04:22:01.556Z,26.47
2024-04-07T04:22:31.669Z,26.48
2024-04-07T04:23:01.788Z,26.47
2024-04-07T04:23:31.910Z,26.46
2024-04-07T04:24:02.015Z,26.47
2024-04-07T04:24:32.135Z,26.46
2024-04-07T04:25:02.267Z,26.46
2024-04-07T04:25:32.267Z,26.44
2024-04-07T04:26:02.372Z,26.47
2024-04-07T04:26:32.359Z,26.47
2024-04-07T04:27:02.476Z,26.47
2024-04-07T04:27:32.589Z,26.47
2024-04-07T04:28:02.715Z,26.46
2024-04-07T04:28:32.828Z,26.47
2024-04-07T04:29:02.941Z,26.44
2024-04-07T04:29:33.064Z,26.46
2024-04-07T04:30:03.048Z,26.47
2024-04-07T04:30:33.165Z,26.44
2024-04-07T04:31:03.280Z,26.44
2024-04-07T04:31:33.397Z,26.46
2024-04-07T04:32:03.519Z,26.46
2024-04-07T04:32:33.650Z,26.47
2024-04-07T04:33:03.633Z,26.44
2024-04-07T04:33:33.628Z,26.47
2024-04-07T04:34:03.747Z,26.47
2024-04-07T04:34:33.739Z,26.48
2024-04-07T04:35:33.818Z,26.46
2024-04-07T04:36:03.930Z,26.46
2024-04-07T04:36:34.049Z,26.47
2024-04-07T04:37:04.163Z,26.46
2024-04-07T04:37:34.279Z,26.43
2024-04-07T04:38:04.395Z,26.47
2024-04-07T04:38:34.510Z,26.47
2024-04-07T04:39:04.510Z,26.47
2024-04-07T04:40:04.588Z,26.48
2024-04-07T04:40:34.708Z,26.47
2024-04-07T04:41:04.694Z,26.47
2024-04-07T04:42:04.773Z,26.50
2024-04-07T04:42:34.889Z,26.46
2024-04-07T04:43:05.013Z,26.47
2024-04-07T04:43:35.095Z,26.47
2024-04-07T04:44:05.179Z,26.50
2024-04-07T04:44:35.255Z,26.48
2024-04-07T04:45:05.334Z,26.47
2024-04-07T04:45:35.410Z,26.48
2024-04-07T04:46:05.488Z,26.48
2024-04-07T04:46:35.574Z,26.48
2024-04-07T04:47:05.643Z,26.46
2024-04-07T04:47:35.741Z,26.47
2024-04-07T04:48:05.831Z,26.47
2024-04-07T04:48:35.897Z,26.50
2024-04-07T04:49:05.975Z,26.51
2024-04-07T04:49:36.054Z,26.50
2024-04-07T04:50:06.136Z,26.50
2024-04-07T04:50:36.207Z,26.48
2024-04-07T04:51:06.296Z,26.51
2024-04-07T04:51:36.361Z,26.48
2024-04-07T04:52:06.463Z,26.48
2024-04-07T04:52:36.566Z,26.47
2024-04-07T04:53:06.674Z,26.48
2024-04-07T04:53:36.664Z,26.48
2024-04-07T04:54:06.783Z,26.50
2024-04-07T04:54:36.893Z,26.47
2024-04-07T04:55:07.014Z,26.47
2024-04-07T04:55:37.144Z,26.47
2024-04-07T04:56:07.239Z,26.48
2024-04-07T04:56:37.357Z,26.48
2024-04-07T04:57:07.380Z,26.48
2024-04-07T04:58:07.444Z,26.47
2024-04-07T04:58:37.556Z,26.46
2024-04-07T04:59:07.670Z,26.46
2024-04-07T04:59:37.788Z,26.46
2024-04-07T05:00:07.905Z,26.47
2024-04-07T05:00:38.025Z,26.46
2024-04-07T05:01:08.142Z,26.46
2024-04-07T05:01:38.262Z,26.46
2024-04-07T05:02:08.386Z,26.46
2024-04-07T05:02:38.376Z,26.48
2024-04-07T05:03:08.488Z,26.47
2024-04-07T05:03:38.607Z,26.48
2024-04-07T05:04:08.724Z,26.46
2024-04-07T05:04:38.836Z,26.46
2024-04-07T05:05:08.959Z,26.47
2024-04-07T05:05:39.060Z,26.44
2024-04-07T05:06:09.182Z,26.48
2024-04-07T05:06:39.308Z,26.47
2024-04-07T05:07:09.355Z,26.43
2024-04-07T05:07:39.373Z,26.44
2024-04-07T05:08:09.345Z,26.46
2024-04-07T05:08:39.453Z,26.46
2024-04-07T05:09:09.633Z,26.46
2024-04-07T05:09:39.746Z,26.46
2024-04-07T05:10:09.740Z,26.44
2024-04-07T05:10:39.754Z,26.43
2024-04-07T05:11:09.747Z,26.46
2024-04-07T05:11:39.877Z,26.46
2024-04-07T05:12:09.860Z,26.46
2024-04-07T05:12:39.907Z,26.46
2024-04-07T05:13:09.869Z,26.46
2024-04-07T05:13:39.976Z,26.44
2024-04-07T05:14:10.092Z,26.46
2024-04-07T05:14:40.210Z,26.46
2024-04-07T05:15:10.323Z,26.44
2024-04-07T05:15:40.444Z,26.44
2024-04-07T05:16:10.574Z,26.43
2024-04-07T05:16:40.554Z,26.44
2024-04-07T05:17:10.554Z,26.44
2024-04-07T05:17:40.662Z,26.44
2024-04-07T05:18:10.788Z,26.46
2024-04-07T05:18:40.793Z,26.46
2024-04-07T05:19:40.902Z,26.46
2024-04-07T05:20:11.038Z,26.46
2024-04-07T05:20:41.029Z,26.42
2024-04-07T05:21:11.145Z,26.44
2024-04-07T05:21:41.258Z,26.43
2024-04-07T05:22:11.371Z,26.42
2024-04-07T05:22:41.369Z,26.43
2024-04-07T05:23:41.447Z,26.46
2024-04-07T05:24:11.438Z,26.43
2024-04-07T05:24:42.481Z,26.43
2024-04-07T05:25:11.603Z,26.43
2024-04-07T05:25:41.596Z,26.43
2024-04-07T05:26:11.723Z,26.44
2024-04-07T05:26:41.816Z,26.42
2024-04-07T05:27:11.935Z,26.43
2024-04-07T05:27:42.065Z,26.44
2024-04-07T05:28:12.172Z,26.43
2024-04-07T05:28:42.160Z,26.43
2024-04-07T05:29:12.287Z,26.46
2024-04-07T05:29:42.397Z,26.44
2024-04-07T05:30:12.520Z,26.44
2024-04-07T05:30:42.513Z,26.42
2024-04-07T05:31:12.627Z,26.42
2024-04-07T05:31:42.744Z,26.42
2024-04-07T05:32:12.860Z,26.42
2024-04-07T05:32:42.966Z,26.42
2024-04-07T05:33:13.090Z,26.43
2024-04-07T05:33:43.199Z,26.42
2024-04-07T05:34:13.327Z,26.42
2024-04-07T05:34:43.322Z,26.42
2024-04-07T05:35:13.441Z,26.40
2024-04-07T05:35:43.434Z,26.42
2024-04-07T05:36:13.552Z,26.42
2024-04-07T05:36:43.540Z,26.42
2024-04-07T05:37:13.658Z,26.42
2024-04-07T05:37:43.654Z,26.42
2024-04-07T05:38:13.767Z,26.42
2024-04-07T05:38:43.774Z,26.42
2024-04-07T05:39:13.897Z,26.42
2024-04-07T05:39:43.882Z,26.42
2024-04-07T05:40:14.008Z,26.44
2024-04-07T05:40:44.116Z,26.43
2024-04-07T05:41:14.235Z,26.40
2024-04-07T05:41:44.360Z,26.42
2024-04-07T05:42:14.460Z,26.42
2024-04-07T05:42:44.465Z,26.43
2024-04-07T05:43:53.676Z,26.37
2024-04-07T05:44:23.609Z,26.39
2024-04-07T05:44:53.699Z,26.39
2024-04-07T05:45:23.776Z,26.39
2024-04-07T05:45:53.849Z,26.36
2024-04-07T05:46:23.924Z,26.36
2024-04-07T05:46:54.055Z,26.37
2024-04-07T05:47:24.029Z,26.34
2024-04-07T05:47:54.104Z,26.39
2024-04-07T05:48:24.182Z,26.34
2024-04-07T05:48:54.254Z,26.36
2024-04-07T05:49:24.326Z,26.36
2024-04-07T05:49:54.423Z,26.36
2024-04-07T05:50:24.494Z,26.37
2024-04-07T05:50:54.572Z,26.36
2024-04-07T05:51:24.659Z,26.37
2024-04-07T05:51:54.759Z,26.36
2024-04-07T05:52:24.826Z,26.40
2024-04-07T05:52:54.951Z,26.37
2024-04-07T05:53:24.905Z,26.36
2024-04-07T05:54:24.965Z,26.34
2024-04-07T05:54:55.084Z,26.37
2024-04-07T05:55:25.198Z,26.36
2024-04-07T05:55:55.368Z,26.37
2024-04-07T05:56:25.375Z,26.37
2024-04-07T05:56:55.401Z,26.36
2024-04-07T05:57:25.492Z,26.37
2024-04-07T05:57:55.611Z,26.37
2024-04-07T05:58:25.725Z,26.37
2024-04-07T05:58:55.740Z,26.39
2024-04-07T05:59:25.710Z,26.37
2024-04-07T05:59:55.816Z,26.37
2024-04-07T06:00:25.937Z,26.36
2024-04-07T06:00:56.046Z,26.36
2024-04-07T06:01:26.177Z,26.39
2024-04-07T06:01:56.291Z,26.40
2024-04-07T06:02:26.398Z,26.36
2024-04-07T06:02:56.391Z,26.37
2024-04-07T06:03:26.506Z,26.39
2024-04-07T06:03:56.615Z,26.37
2024-04-07T06:04:26.735Z,26.37
2024-04-07T06:04:56.856Z,26.40
2024-04-07T06:05:26.966Z,26.39
2024-04-07T06:05:57.085Z,26.39
2024-04-07T06:06:27.197Z,26.39
2024-04-07T06:06:57.319Z,26.40
2024-04-07T06:07:27.445Z,26.39
2024-04-07T06:07:57.482Z,26.39
2024-04-07T06:08:27.471Z,26.40
2024-04-07T06:08:57.581Z,26.39
2024-04-07T06:09:27.700Z,26.40
2024-04-07T06:09:57.813Z,26.39
2024-04-07T06:10:27.932Z,26.39
2024-04-07T06:10:57.957Z,26.39
2024-04-07T06:11:27.944Z,26.37
2024-04-07T06:11:58.070Z,26.39
2024-04-07T06:12:28.049Z,26.37
2024-04-07T06:12:58.171Z,26.37
2024-04-07T06:13:28.279Z,26.39
2024-04-07T06:13:58.430Z,26.36
2024-04-07T06:14:28.416Z,26.39
2024-04-07T06:14:58.518Z,26.40
2024-04-07T06:15:28.638Z,26.37
2024-04-07T06:15:58.764Z,26.37
2024-04-07T06:16:28.769Z,26.37
2024-04-07T06:17:28.847Z,26.39
2024-04-07T06:17:58.980Z,26.39
2024-04-07T06:18:29.077Z,26.39
2024-04-07T06:18:59.075Z,26.39
2024-04-07T06:19:29.195Z,26.39
2024-04-07T06:19:59.339Z,26.37
2024-04-07T06:20:29.312Z,26.36
2024-04-07T06:20:59.434Z,26.37
2024-04-07T06:21:29.432Z,26.39
2024-04-07T06:22:29.499Z,26.39
2024-04-07T06:22:59.507Z,26.40
2024-04-07T06:23:29.503Z,26.37
2024-04-07T06:23:59.616Z,26.36
2024-04-07T06:24:29.732Z,26.39
2024-04-07T06:24:59.731Z,26.36
2024-04-07T06:25:29.865Z,26.37
2024-04-07T06:25:59.870Z,26.36
2024-04-07T06:26:29.976Z,26.37
2024-04-07T06:26:59.974Z,26.39
2024-04-07T06:27:30.106Z,26.39
2024-04-07T06:28:00.203Z,26.37
2024-04-07T06:28:30.320Z,26.39
2024-04-07T06:29:00.444Z,26.39
2024-04-07T06:29:30.551Z,26.39
2024-04-07T06:30:00.652Z,26.37
2024-04-07T06:30:30.790Z,26.42
2024-04-07T06:31:00.774Z,26.37
2024-04-07T06:31:30.894Z,26.37
2024-04-07T06:32:01.002Z,26.36
2024-04-07T06:32:31.127Z,26.39
2024-04-07T06:33:01.129Z,26.39
2024-04-07T06:33:31.225Z,26.39
2024-04-07T06:34:01.223Z,26.39
2024-04-07T06:34:31.332Z,26.37
2024-04-07T06:35:01.462Z,26.39
2024-04-07T06:35:31.454Z,26.39
2024-04-07T06:36:01.564Z,26.37
2024-04-07T06:36:34.055Z,26.37
2024-04-07T06:37:01.744Z,26.39
2024-04-07T06:37:31.839Z,26.40
2024-04-07T06:38:01.950Z,26.37
2024-04-07T06:38:32.065Z,26.37
2024-04-07T06:39:02.179Z,26.36
2024-04-07T06:39:32.314Z,26.39
2024-04-07T06:40:02.332Z,26.40
2024-04-07T06:40:32.331Z,26.40
2024-04-07T06:41:32.409Z,26.39
2024-04-07T06:42:02.526Z,26.36
2024-04-07T06:42:32.649Z,26.39
2024-04-07T06:43:02.751Z,26.39
2024-04-07T06:43:32.858Z,26.39
2024-04-07T06:44:02.925Z,26.36
2024-04-07T06:44:33.011Z,26.40
2024-04-07T06:45:03.080Z,26.37
2024-04-07T06:45:33.157Z,26.40
2024-04-07T06:46:03.235Z,26.40
2024-04-07T06:46:33.308Z,26.37
2024-04-07T06:47:03.409Z,26.39
2024-04-07T06:47:33.473Z,26.40
2024-04-07T06:48:03.544Z,26.37